sensor_id;sensor_type;location;lat;lon;timestamp;P1;durP1;ratioP1;P2;durP2;ratioP2
46507;SDS011;32223;53.654;10.014;2023-04-06T00:01:21;6.35;;;3.33;;
46507;SDS011;32223;53.654;10.014;2023-04-06T00:03:46;5.20;;;3.17;;
46507;SDS011;32223;53.654;10.014;2023-04-06T00:06:12;7.35;;;3.38;;
46507;SDS011;32223;53.654;10.014;2023-04-06T00:08:38;6.50;;;3.40;;
46507;SDS011;32223;53.654;10.014;2023-04-06T00:11:04;6.55;;;3.58;;
46507;SDS011;32223;53.654;10.014;2023-04-06T00:13:29;6.15;;;3.83;;
46507;SDS011;32223;53.654;10.014;2023-04-06T00:15:55;6.40;;;3.28;;
46507;SDS011;32223;53.654;10.014;2023-04-06T00:18:20;6.30;;;3.72;;
46507;SDS011;32223;53.654;10.014;2023-04-06T00:20:47;9.18;;;4.00;;
46507;SDS011;32223;53.654;10.014;2023-04-06T00:23:12;8.18;;;4.30;;
46507;SDS011;32223;53.654;10.014;2023-04-06T00:25:38;6.50;;;3.83;;
46507;SDS011;32223;53.654;10.014;2023-04-06T00:28:04;7.45;;;3.90;;
46507;SDS011;32223;53.654;10.014;2023-04-06T00:30:29;5.55;;;3.83;;
46507;SDS011;32223;53.654;10.014;2023-04-06T00:32:55;7.20;;;3.72;;
46507;SDS011;32223;53.654;10.014;2023-04-06T00:35:21;6.25;;;3.58;;
46507;SDS011;32223;53.654;10.014;2023-04-06T00:37:46;7.20;;;3.00;;
46507;SDS011;32223;53.654;10.014;2023-04-06T00:40:15;9.35;;;3.88;;
46507;SDS011;32223;53.654;10.014;2023-04-06T00:42:41;7.57;;;3.92;;
46507;SDS011;32223;53.654;10.014;2023-04-06T00:45:07;6.65;;;3.83;;
46507;SDS011;32223;53.654;10.014;2023-04-06T00:47:33;7.65;;;4.30;;
46507;SDS011;32223;53.654;10.014;2023-04-06T00:49:59;6.97;;;3.45;;
46507;SDS011;32223;53.654;10.014;2023-04-06T00:52:24;7.13;;;3.70;;
46507;SDS011;32223;53.654;10.014;2023-04-06T00:54:50;6.18;;;3.22;;
46507;SDS011;32223;53.654;10.014;2023-04-06T00:57:16;7.57;;;4.20;;
46507;SDS011;32223;53.654;10.014;2023-04-06T00:59:43;9.07;;;4.68;;
46507;SDS011;32223;53.654;10.014;2023-04-06T01:02:09;5.07;;;3.75;;
46507;SDS011;32223;53.654;10.014;2023-04-06T01:04:35;6.75;;;4.00;;
46507;SDS011;32223;53.654;10.014;2023-04-06T01:07:01;7.97;;;4.18;;
46507;SDS011;32223;53.654;10.014;2023-04-06T01:09:30;7.68;;;3.70;;
46507;SDS011;32223;53.654;10.014;2023-04-06T01:11:56;7.28;;;3.90;;
46507;SDS011;32223;53.654;10.014;2023-04-06T01:14:22;7.20;;;3.85;;
46507;SDS011;32223;53.654;10.014;2023-04-06T01:16:49;6.95;;;3.80;;
46507;SDS011;32223;53.654;10.014;2023-04-06T01:19:15;8.00;;;4.13;;
46507;SDS011;32223;53.654;10.014;2023-04-06T01:21:40;8.57;;;3.83;;
46507;SDS011;32223;53.654;10.014;2023-04-06T01:24:07;8.40;;;4.03;;
46507;SDS011;32223;53.654;10.014;2023-04-06T01:26:33;7.00;;;3.78;;
46507;SDS011;32223;53.654;10.014;2023-04-06T01:28:59;6.97;;;3.85;;
46507;SDS011;32223;53.654;10.014;2023-04-06T01:31:26;7.90;;;4.43;;
46507;SDS011;32223;53.654;10.014;2023-04-06T01:33:52;7.75;;;3.58;;
46507;SDS011;32223;53.654;10.014;2023-04-06T01:36:18;7.80;;;3.72;;
46507;SDS011;32223;53.654;10.014;2023-04-06T01:38:44;6.07;;;3.88;;
46507;SDS011;32223;53.654;10.014;2023-04-06T01:41:10;5.57;;;3.47;;
46507;SDS011;32223;53.654;10.014;2023-04-06T01:43:36;7.00;;;3.95;;
46507;SDS011;32223;53.654;10.014;2023-04-06T01:46:02;5.30;;;3.38;;
46507;SDS011;32223;53.654;10.014;2023-04-06T01:48:28;5.78;;;3.67;;
46507;SDS011;32223;53.654;10.014;2023-04-06T01:50:54;7.03;;;3.63;;
46507;SDS011;32223;53.654;10.014;2023-04-06T01:53:20;8.63;;;3.80;;
46507;SDS011;32223;53.654;10.014;2023-04-06T01:55:45;6.72;;;3.58;;
46507;SDS011;32223;53.654;10.014;2023-04-06T01:58:11;6.47;;;3.47;;
46507;SDS011;32223;53.654;10.014;2023-04-06T02:00:37;8.23;;;4.10;;
46507;SDS011;32223;53.654;10.014;2023-04-06T02:03:03;6.63;;;3.60;;
46507;SDS011;32223;53.654;10.014;2023-04-06T02:05:30;8.88;;;3.67;;
46507;SDS011;32223;53.654;10.014;2023-04-06T02:07:58;7.55;;;3.58;;
46507;SDS011;32223;53.654;10.014;2023-04-06T02:10:23;5.55;;;3.28;;
46507;SDS011;32223;53.654;10.014;2023-04-06T02:12:49;6.82;;;3.83;;
46507;SDS011;32223;53.654;10.014;2023-04-06T02:15:15;5.65;;;3.35;;
46507;SDS011;32223;53.654;10.014;2023-04-06T02:17:41;7.55;;;3.88;;
46507;SDS011;32223;53.654;10.014;2023-04-06T02:20:07;11.32;;;4.13;;
46507;SDS011;32223;53.654;10.014;2023-04-06T02:22:36;10.98;;;3.67;;
46507;SDS011;32223;53.654;10.014;2023-04-06T02:25:02;8.30;;;4.20;;
46507;SDS011;32223;53.654;10.014;2023-04-06T02:27:28;6.75;;;3.13;;
46507;SDS011;32223;53.654;10.014;2023-04-06T02:29:54;7.68;;;3.80;;
46507;SDS011;32223;53.654;10.014;2023-04-06T02:32:19;8.05;;;4.38;;
46507;SDS011;32223;53.654;10.014;2023-04-06T02:34:45;7.57;;;3.50;;
46507;SDS011;32223;53.654;10.014;2023-04-06T02:37:11;6.35;;;3.92;;
46507;SDS011;32223;53.654;10.014;2023-04-06T02:39:36;7.38;;;3.63;;
46507;SDS011;32223;53.654;10.014;2023-04-06T02:42:02;7.70;;;4.18;;
46507;SDS011;32223;53.654;10.014;2023-04-06T02:44:28;5.75;;;3.47;;
46507;SDS011;32223;53.654;10.014;2023-04-06T02:46:53;9.20;;;3.75;;
46507;SDS011;32223;53.654;10.014;2023-04-06T02:49:19;8.02;;;4.22;;
46507;SDS011;32223;53.654;10.014;2023-04-06T02:51:44;8.13;;;4.05;;
46507;SDS011;32223;53.654;10.014;2023-04-06T02:54:10;8.18;;;3.92;;
46507;SDS011;32223;53.654;10.014;2023-04-06T02:56:36;7.18;;;3.97;;
46507;SDS011;32223;53.654;10.014;2023-04-06T02:59:01;9.25;;;4.88;;
46507;SDS011;32223;53.654;10.014;2023-04-06T03:01:27;9.60;;;4.00;;
46507;SDS011;32223;53.654;10.014;2023-04-06T03:03:52;5.60;;;3.33;;
46507;SDS011;32223;53.654;10.014;2023-04-06T03:06:18;8.02;;;3.50;;
46507;SDS011;32223;53.654;10.014;2023-04-06T03:08:44;6.13;;;3.60;;
46507;SDS011;32223;53.654;10.014;2023-04-06T03:11:10;7.30;;;4.05;;
46507;SDS011;32223;53.654;10.014;2023-04-06T03:13:36;6.20;;;3.45;;
46507;SDS011;32223;53.654;10.014;2023-04-06T03:16:03;5.80;;;3.80;;
46507;SDS011;32223;53.654;10.014;2023-04-06T03:18:30;7.18;;;3.90;;
46507;SDS011;32223;53.654;10.014;2023-04-06T03:20:56;7.28;;;3.67;;
46507;SDS011;32223;53.654;10.014;2023-04-06T03:23:22;6.47;;;3.63;;
46507;SDS011;32223;53.654;10.014;2023-04-06T03:25:47;5.68;;;3.63;;
46507;SDS011;32223;53.654;10.014;2023-04-06T03:28:13;8.07;;;3.92;;
46507;SDS011;32223;53.654;10.014;2023-04-06T03:30:39;7.22;;;4.40;;
46507;SDS011;32223;53.654;10.014;2023-04-06T03:33:05;5.60;;;3.28;;
46507;SDS011;32223;53.654;10.014;2023-04-06T03:35:31;8.32;;;4.07;;
46507;SDS011;32223;53.654;10.014;2023-04-06T03:37:56;8.00;;;3.50;;
46507;SDS011;32223;53.654;10.014;2023-04-06T03:40:22;9.60;;;5.47;;
46507;SDS011;32223;53.654;10.014;2023-04-06T03:42:48;12.00;;;5.03;;
46507;SDS011;32223;53.654;10.014;2023-04-06T03:45:14;10.02;;;4.38;;
46507;SDS011;32223;53.654;10.014;2023-04-06T03:47:40;6.28;;;3.97;;
46507;SDS011;32223;53.654;10.014;2023-04-06T03:50:06;8.55;;;4.00;;
46507;SDS011;32223;53.654;10.014;2023-04-06T03:52:31;6.68;;;4.25;;
46507;SDS011;32223;53.654;10.014;2023-04-06T03:54:57;6.57;;;3.33;;
46507;SDS011;32223;53.654;10.014;2023-04-06T03:57:23;7.28;;;4.15;;
46507;SDS011;32223;53.654;10.014;2023-04-06T03:59:48;7.25;;;3.92;;
46507;SDS011;32223;53.654;10.014;2023-04-06T04:02:14;6.80;;;4.18;;
46507;SDS011;32223;53.654;10.014;2023-04-06T04:04:40;8.20;;;5.63;;
46507;SDS011;32223;53.654;10.014;2023-04-06T04:07:06;7.55;;;3.88;;
46507;SDS011;32223;53.654;10.014;2023-04-06T04:09:31;7.05;;;4.32;;
46507;SDS011;32223;53.654;10.014;2023-04-06T04:11:57;6.50;;;4.38;;
46507;SDS011;32223;53.654;10.014;2023-04-06T04:14:22;9.15;;;3.38;;
46507;SDS011;32223;53.654;10.014;2023-04-06T04:16:48;7.90;;;4.35;;
46507;SDS011;32223;53.654;10.014;2023-04-06T04:19:14;6.80;;;3.97;;
46507;SDS011;32223;53.654;10.014;2023-04-06T04:21:43;7.53;;;3.88;;
46507;SDS011;32223;53.654;10.014;2023-04-06T04:24:10;5.93;;;3.47;;
46507;SDS011;32223;53.654;10.014;2023-04-06T04:26:35;7.63;;;4.85;;
46507;SDS011;32223;53.654;10.014;2023-04-06T04:29:02;6.47;;;3.67;;
46507;SDS011;32223;53.654;10.014;2023-04-06T04:31:27;8.07;;;4.20;;
46507;SDS011;32223;53.654;10.014;2023-04-06T04:33:53;6.72;;;3.67;;
46507;SDS011;32223;53.654;10.014;2023-04-06T04:36:18;8.43;;;4.20;;
46507;SDS011;32223;53.654;10.014;2023-04-06T04:38:44;9.70;;;4.07;;
46507;SDS011;32223;53.654;10.014;2023-04-06T04:41:10;8.77;;;5.35;;
46507;SDS011;32223;53.654;10.014;2023-04-06T04:43:35;8.27;;;3.90;;
46507;SDS011;32223;53.654;10.014;2023-04-06T04:46:01;8.40;;;4.72;;
46507;SDS011;32223;53.654;10.014;2023-04-06T04:48:28;9.25;;;5.50;;
46507;SDS011;32223;53.654;10.014;2023-04-06T04:50:54;9.55;;;5.97;;
46507;SDS011;32223;53.654;10.014;2023-04-06T04:53:20;8.68;;;5.90;;
46507;SDS011;32223;53.654;10.014;2023-04-06T04:55:46;12.43;;;6.15;;
46507;SDS011;32223;53.654;10.014;2023-04-06T04:58:11;12.73;;;5.90;;
46507;SDS011;32223;53.654;10.014;2023-04-06T05:00:41;7.75;;;4.95;;
46507;SDS011;32223;53.654;10.014;2023-04-06T05:03:07;8.18;;;4.60;;
46507;SDS011;32223;53.654;10.014;2023-04-06T05:05:33;7.25;;;4.38;;
46507;SDS011;32223;53.654;10.014;2023-04-06T05:07:59;7.63;;;4.45;;
46507;SDS011;32223;53.654;10.014;2023-04-06T05:10:25;7.65;;;4.03;;
46507;SDS011;32223;53.654;10.014;2023-04-06T05:12:50;8.73;;;5.47;;
46507;SDS011;32223;53.654;10.014;2023-04-06T05:15:16;8.63;;;4.15;;
46507;SDS011;32223;53.654;10.014;2023-04-06T05:17:42;9.65;;;5.00;;
46507;SDS011;32223;53.654;10.014;2023-04-06T05:20:07;9.35;;;5.65;;
46507;SDS011;32223;53.654;10.014;2023-04-06T05:22:33;10.40;;;5.70;;
46507;SDS011;32223;53.654;10.014;2023-04-06T05:24:59;6.93;;;4.80;;
46507;SDS011;32223;53.654;10.014;2023-04-06T05:27:26;12.13;;;5.07;;
46507;SDS011;32223;53.654;10.014;2023-04-06T05:29:51;9.00;;;5.20;;
46507;SDS011;32223;53.654;10.014;2023-04-06T05:32:17;9.93;;;5.22;;
46507;SDS011;32223;53.654;10.014;2023-04-06T05:34:47;7.93;;;4.63;;
46507;SDS011;32223;53.654;10.014;2023-04-06T05:37:13;11.35;;;5.55;;
46507;SDS011;32223;53.654;10.014;2023-04-06T05:39:39;12.77;;;5.65;;
46507;SDS011;32223;53.654;10.014;2023-04-06T05:42:05;11.57;;;5.53;;
46507;SDS011;32223;53.654;10.014;2023-04-06T05:44:31;9.55;;;5.40;;
46507;SDS011;32223;53.654;10.014;2023-04-06T05:46:57;12.20;;;6.00;;
46507;SDS011;32223;53.654;10.014;2023-04-06T05:49:23;9.63;;;5.80;;
46507;SDS011;32223;53.654;10.014;2023-04-06T05:51:48;10.48;;;5.28;;
46507;SDS011;32223;53.654;10.014;2023-04-06T05:54:14;12.07;;;7.32;;
46507;SDS011;32223;53.654;10.014;2023-04-06T05:56:40;11.52;;;6.25;;
46507;SDS011;32223;53.654;10.014;2023-04-06T05:59:05;15.50;;;7.60;;
46507;SDS011;32223;53.654;10.014;2023-04-06T06:01:32;12.50;;;6.03;;
46507;SDS011;32223;53.654;10.014;2023-04-06T06:03:59;11.70;;;6.07;;
46507;SDS011;32223;53.654;10.014;2023-04-06T06:06:27;14.27;;;6.95;;
46507;SDS011;32223;53.654;10.014;2023-04-06T06:08:53;16.83;;;7.63;;
46507;SDS011;32223;53.654;10.014;2023-04-06T06:11:19;8.73;;;6.10;;
46507;SDS011;32223;53.654;10.014;2023-04-06T06:13:45;11.68;;;5.60;;
46507;SDS011;32223;53.654;10.014;2023-04-06T06:16:10;10.07;;;6.07;;
46507;SDS011;32223;53.654;10.014;2023-04-06T06:18:36;13.38;;;6.13;;
46507;SDS011;32223;53.654;10.014;2023-04-06T06:21:02;12.82;;;6.28;;
46507;SDS011;32223;53.654;10.014;2023-04-06T06:23:27;16.13;;;6.60;;
46507;SDS011;32223;53.654;10.014;2023-04-06T06:25:53;12.45;;;6.50;;
46507;SDS011;32223;53.654;10.014;2023-04-06T06:28:19;13.57;;;6.88;;
46507;SDS011;32223;53.654;10.014;2023-04-06T06:30:44;10.85;;;6.97;;
46507;SDS011;32223;53.654;10.014;2023-04-06T06:33:10;13.02;;;6.53;;
46507;SDS011;32223;53.654;10.014;2023-04-06T06:35:36;13.18;;;7.10;;
46507;SDS011;32223;53.654;10.014;2023-04-06T06:38:01;11.90;;;6.55;;
46507;SDS011;32223;53.654;10.014;2023-04-06T06:40:27;10.63;;;6.93;;
46507;SDS011;32223;53.654;10.014;2023-04-06T06:42:53;11.50;;;6.05;;
46507;SDS011;32223;53.654;10.014;2023-04-06T06:45:19;11.40;;;6.63;;
46507;SDS011;32223;53.654;10.014;2023-04-06T06:47:45;9.98;;;6.13;;
46507;SDS011;32223;53.654;10.014;2023-04-06T06:50:11;11.02;;;6.22;;
46507;SDS011;32223;53.654;10.014;2023-04-06T06:52:37;14.07;;;7.75;;
46507;SDS011;32223;53.654;10.014;2023-04-06T06:55:03;9.68;;;6.22;;
46507;SDS011;32223;53.654;10.014;2023-04-06T06:57:29;8.57;;;5.50;;
46507;SDS011;32223;53.654;10.014;2023-04-06T06:59:54;7.90;;;6.15;;
46507;SDS011;32223;53.654;10.014;2023-04-06T07:02:20;9.23;;;5.82;;
46507;SDS011;32223;53.654;10.014;2023-04-06T07:04:48;10.10;;;5.75;;
46507;SDS011;32223;53.654;10.014;2023-04-06T07:07:14;9.25;;;5.60;;
46507;SDS011;32223;53.654;10.014;2023-04-06T07:09:40;10.90;;;5.60;;
46507;SDS011;32223;53.654;10.014;2023-04-06T07:12:06;7.47;;;4.80;;
46507;SDS011;32223;53.654;10.014;2023-04-06T07:14:31;7.45;;;5.15;;
46507;SDS011;32223;53.654;10.014;2023-04-06T07:16:57;8.10;;;5.03;;
46507;SDS011;32223;53.654;10.014;2023-04-06T07:19:23;10.07;;;5.80;;
46507;SDS011;32223;53.654;10.014;2023-04-06T07:21:48;7.60;;;5.20;;
46507;SDS011;32223;53.654;10.014;2023-04-06T07:24:14;7.05;;;4.68;;
46507;SDS011;32223;53.654;10.014;2023-04-06T07:26:40;8.85;;;5.50;;
46507;SDS011;32223;53.654;10.014;2023-04-06T07:29:06;11.10;;;4.75;;
46507;SDS011;32223;53.654;10.014;2023-04-06T07:31:32;6.18;;;3.78;;
46507;SDS011;32223;53.654;10.014;2023-04-06T07:33:58;7.35;;;4.15;;
46507;SDS011;32223;53.654;10.014;2023-04-06T07:36:24;7.22;;;4.75;;
46507;SDS011;32223;53.654;10.014;2023-04-06T07:38:50;6.53;;;4.25;;
46507;SDS011;32223;53.654;10.014;2023-04-06T07:41:15;11.23;;;4.18;;
46507;SDS011;32223;53.654;10.014;2023-04-06T07:43:41;6.38;;;4.35;;
46507;SDS011;32223;53.654;10.014;2023-04-06T07:46:07;5.82;;;3.50;;
46507;SDS011;32223;53.654;10.014;2023-04-06T07:48:32;16.13;;;5.90;;
46507;SDS011;32223;53.654;10.014;2023-04-06T07:51:02;8.68;;;4.35;;
46507;SDS011;32223;53.654;10.014;2023-04-06T07:53:28;7.05;;;3.95;;
46507;SDS011;32223;53.654;10.014;2023-04-06T07:55:54;7.97;;;4.00;;
46507;SDS011;32223;53.654;10.014;2023-04-06T07:58:20;9.57;;;4.05;;
46507;SDS011;32223;53.654;10.014;2023-04-06T08:00:46;7.32;;;4.25;;
46507;SDS011;32223;53.654;10.014;2023-04-06T08:03:12;6.05;;;3.70;;
46507;SDS011;32223;53.654;10.014;2023-04-06T08:05:37;7.30;;;4.03;;
46507;SDS011;32223;53.654;10.014;2023-04-06T08:08:03;7.93;;;3.65;;
46507;SDS011;32223;53.654;10.014;2023-04-06T08:10:29;5.60;;;2.95;;
46507;SDS011;32223;53.654;10.014;2023-04-06T08:12:55;7.40;;;3.05;;
46507;SDS011;32223;53.654;10.014;2023-04-06T08:15:20;6.10;;;3.42;;
46507;SDS011;32223;53.654;10.014;2023-04-06T08:17:46;6.00;;;3.10;;
46507;SDS011;32223;53.654;10.014;2023-04-06T08:20:12;10.88;;;3.53;;
46507;SDS011;32223;53.654;10.014;2023-04-06T08:22:37;8.13;;;3.40;;
46507;SDS011;32223;53.654;10.014;2023-04-06T08:25:03;8.25;;;3.53;;
46507;SDS011;32223;53.654;10.014;2023-04-06T08:27:29;6.35;;;3.35;;
46507;SDS011;32223;53.654;10.014;2023-04-06T08:29:54;7.68;;;3.30;;
46507;SDS011;32223;53.654;10.014;2023-04-06T08:32:20;10.20;;;4.70;;
46507;SDS011;32223;53.654;10.014;2023-04-06T08:34:46;7.35;;;4.05;;
46507;SDS011;32223;53.654;10.014;2023-04-06T08:37:12;4.57;;;2.97;;
46507;SDS011;32223;53.654;10.014;2023-04-06T08:39:37;4.40;;;2.47;;
46507;SDS011;32223;53.654;10.014;2023-04-06T08:42:03;6.72;;;2.63;;
46507;SDS011;32223;53.654;10.014;2023-04-06T08:44:29;6.97;;;3.45;;
46507;SDS011;32223;53.654;10.014;2023-04-06T08:46:57;7.10;;;2.75;;
46507;SDS011;32223;53.654;10.014;2023-04-06T08:49:24;5.32;;;2.22;;
46507;SDS011;32223;53.654;10.014;2023-04-06T08:51:50;4.80;;;2.63;;
46507;SDS011;32223;53.654;10.014;2023-04-06T08:54:16;5.75;;;2.50;;
46507;SDS011;32223;53.654;10.014;2023-04-06T08:56:41;9.77;;;3.03;;
46507;SDS011;32223;53.654;10.014;2023-04-06T08:59:08;6.80;;;3.47;;
46507;SDS011;32223;53.654;10.014;2023-04-06T09:01:37;8.48;;;2.72;;
46507;SDS011;32223;53.654;10.014;2023-04-06T09:04:06;4.97;;;2.70;;
46507;SDS011;32223;53.654;10.014;2023-04-06T09:06:35;3.78;;;2.22;;
46507;SDS011;32223;53.654;10.014;2023-04-06T09:09:01;5.25;;;2.88;;
46507;SDS011;32223;53.654;10.014;2023-04-06T09:11:27;3.65;;;2.30;;
46507;SDS011;32223;53.654;10.014;2023-04-06T09:13:54;6.45;;;3.10;;
46507;SDS011;32223;53.654;10.014;2023-04-06T09:16:21;4.93;;;2.92;;
46507;SDS011;32223;53.654;10.014;2023-04-06T09:18:48;3.60;;;2.10;;
46507;SDS011;32223;53.654;10.014;2023-04-06T09:21:16;5.05;;;2.47;;
46507;SDS011;32223;53.654;10.014;2023-04-06T09:23:43;4.70;;;2.45;;
46507;SDS011;32223;53.654;10.014;2023-04-06T09:26:10;5.43;;;2.53;;
46507;SDS011;32223;53.654;10.014;2023-04-06T09:28:51;5.10;;;2.50;;
46507;SDS011;32223;53.654;10.014;2023-04-06T09:33:50;7.43;;;2.55;;
46507;SDS011;32223;53.654;10.014;2023-04-06T09:36:17;6.55;;;2.50;;
46507;SDS011;32223;53.654;10.014;2023-04-06T09:38:52;6.25;;;2.97;;
46507;SDS011;32223;53.654;10.014;2023-04-06T09:41:26;3.95;;;2.25;;
46507;SDS011;32223;53.654;10.014;2023-04-06T09:44:09;6.82;;;2.80;;
46507;SDS011;32223;53.654;10.014;2023-04-06T09:46:37;4.15;;;2.22;;
46507;SDS011;32223;53.654;10.014;2023-04-06T09:49:04;5.22;;;2.95;;
46507;SDS011;32223;53.654;10.014;2023-04-06T09:51:34;5.40;;;3.22;;
46507;SDS011;32223;53.654;10.014;2023-04-06T09:54:05;6.60;;;3.08;;
46507;SDS011;32223;53.654;10.014;2023-04-06T09:56:50;7.50;;;3.10;;
46507;SDS011;32223;53.654;10.014;2023-04-06T10:05:15;6.53;;;2.65;;
46507;SDS011;32223;53.654;10.014;2023-04-06T10:08:06;7.22;;;2.65;;
46507;SDS011;32223;53.654;10.014;2023-04-06T10:10:36;4.63;;;2.85;;
46507;SDS011;32223;53.654;10.014;2023-04-06T10:13:03;10.10;;;3.13;;
46507;SDS011;32223;53.654;10.014;2023-04-06T10:15:29;7.03;;;3.25;;
46507;SDS011;32223;53.654;10.014;2023-04-06T10:17:56;4.60;;;3.03;;
46507;SDS011;32223;53.654;10.014;2023-04-06T10:23:05;5.28;;;2.80;;
46507;SDS011;32223;53.654;10.014;2023-04-06T10:25:57;7.90;;;3.55;;
46507;SDS011;32223;53.654;10.014;2023-04-06T10:28:25;5.55;;;2.53;;
46507;SDS011;32223;53.654;10.014;2023-04-06T10:30:58;8.27;;;2.75;;
46507;SDS011;32223;53.654;10.014;2023-04-06T10:33:25;3.83;;;2.30;;
46507;SDS011;32223;53.654;10.014;2023-04-06T10:35:51;4.55;;;2.47;;
46507;SDS011;32223;53.654;10.014;2023-04-06T10:38:17;3.53;;;2.20;;
46507;SDS011;32223;53.654;10.014;2023-04-06T10:40:47;2.97;;;2.22;;
46507;SDS011;32223;53.654;10.014;2023-04-06T10:43:14;4.00;;;2.20;;
46507;SDS011;32223;53.654;10.014;2023-04-06T10:45:44;10.48;;;6.30;;
46507;SDS011;32223;53.654;10.014;2023-04-06T10:48:13;5.15;;;2.30;;
46507;SDS011;32223;53.654;10.014;2023-04-06T10:50:40;5.03;;;2.42;;
46507;SDS011;32223;53.654;10.014;2023-04-06T10:53:08;3.97;;;2.55;;
46507;SDS011;32223;53.654;10.014;2023-04-06T10:55:34;5.50;;;2.38;;
46507;SDS011;32223;53.654;10.014;2023-04-06T10:58:05;4.93;;;2.42;;
46507;SDS011;32223;53.654;10.014;2023-04-06T11:00:32;4.13;;;2.88;;
46507;SDS011;32223;53.654;10.014;2023-04-06T11:03:00;6.93;;;3.90;;
46507;SDS011;32223;53.654;10.014;2023-04-06T11:05:27;6.38;;;3.30;;
46507;SDS011;32223;53.654;10.014;2023-04-06T11:07:52;5.60;;;3.47;;
46507;SDS011;32223;53.654;10.014;2023-04-06T11:10:22;7.90;;;3.72;;
46507;SDS011;32223;53.654;10.014;2023-04-06T11:12:57;6.15;;;3.38;;
46507;SDS011;32223;53.654;10.014;2023-04-06T11:15:22;11.33;;;4.20;;
46507;SDS011;32223;53.654;10.014;2023-04-06T11:17:48;6.63;;;4.10;;
46507;SDS011;32223;53.654;10.014;2023-04-06T11:20:14;6.57;;;3.33;;
46507;SDS011;32223;53.654;10.014;2023-04-06T11:22:52;7.32;;;3.85;;
46507;SDS011;32223;53.654;10.014;2023-04-06T11:25:18;6.47;;;3.97;;
46507;SDS011;32223;53.654;10.014;2023-04-06T11:27:45;7.60;;;3.75;;
46507;SDS011;32223;53.654;10.014;2023-04-06T11:30:13;13.63;;;3.70;;
46507;SDS011;32223;53.654;10.014;2023-04-06T11:32:42;7.15;;;4.32;;
46507;SDS011;32223;53.654;10.014;2023-04-06T11:35:19;9.15;;;4.22;;
46507;SDS011;32223;53.654;10.014;2023-04-06T11:37:46;6.63;;;4.35;;
46507;SDS011;32223;53.654;10.014;2023-04-06T11:40:13;7.78;;;4.30;;
46507;SDS011;32223;53.654;10.014;2023-04-06T11:42:39;6.70;;;3.75;;
46507;SDS011;32223;53.654;10.014;2023-04-06T11:45:05;5.65;;;4.10;;
46507;SDS011;32223;53.654;10.014;2023-04-06T11:47:33;9.40;;;5.22;;
46507;SDS011;32223;53.654;10.014;2023-04-06T11:50:10;7.93;;;4.32;;
46507;SDS011;32223;53.654;10.014;2023-04-06T11:52:39;6.25;;;4.20;;
46507;SDS011;32223;53.654;10.014;2023-04-06T11:55:16;6.78;;;4.25;;
46507;SDS011;32223;53.654;10.014;2023-04-06T11:57:43;8.40;;;4.70;;
46507;SDS011;32223;53.654;10.014;2023-04-06T12:00:10;11.77;;;5.10;;
46507;SDS011;32223;53.654;10.014;2023-04-06T12:02:37;7.80;;;4.60;;
46507;SDS011;32223;53.654;10.014;2023-04-06T12:05:04;9.30;;;4.38;;
46507;SDS011;32223;53.654;10.014;2023-04-06T12:07:31;10.10;;;4.60;;
46507;SDS011;32223;53.654;10.014;2023-04-06T12:09:57;7.93;;;4.05;;
46507;SDS011;32223;53.654;10.014;2023-04-06T12:12:24;6.30;;;3.70;;
46507;SDS011;32223;53.654;10.014;2023-04-06T12:14:50;8.32;;;5.10;;
46507;SDS011;32223;53.654;10.014;2023-04-06T12:17:16;6.72;;;3.95;;
46507;SDS011;32223;53.654;10.014;2023-04-06T12:19:42;6.32;;;4.07;;
46507;SDS011;32223;53.654;10.014;2023-04-06T12:22:08;5.72;;;3.90;;
46507;SDS011;32223;53.654;10.014;2023-04-06T12:24:34;5.75;;;4.25;;
46507;SDS011;32223;53.654;10.014;2023-04-06T12:26:59;8.45;;;4.90;;
46507;SDS011;32223;53.654;10.014;2023-04-06T12:29:26;7.72;;;4.68;;
46507;SDS011;32223;53.654;10.014;2023-04-06T12:31:52;6.70;;;4.53;;
46507;SDS011;32223;53.654;10.014;2023-04-06T12:34:18;6.53;;;3.80;;
46507;SDS011;32223;53.654;10.014;2023-04-06T12:36:43;6.68;;;4.07;;
46507;SDS011;32223;53.654;10.014;2023-04-06T12:39:09;6.70;;;4.20;;
46507;SDS011;32223;53.654;10.014;2023-04-06T12:41:36;8.35;;;4.47;;
46507;SDS011;32223;53.654;10.014;2023-04-06T12:44:02;8.02;;;4.32;;
46507;SDS011;32223;53.654;10.014;2023-04-06T12:46:28;6.18;;;4.38;;
46507;SDS011;32223;53.654;10.014;2023-04-06T12:48:57;8.25;;;4.13;;
46507;SDS011;32223;53.654;10.014;2023-04-06T12:51:24;9.27;;;4.00;;
46507;SDS011;32223;53.654;10.014;2023-04-06T12:53:52;5.82;;;4.10;;
46507;SDS011;32223;53.654;10.014;2023-04-06T12:56:18;8.63;;;4.35;;
46507;SDS011;32223;53.654;10.014;2023-04-06T12:58:46;7.38;;;4.22;;
46507;SDS011;32223;53.654;10.014;2023-04-06T13:01:12;9.65;;;4.70;;
46507;SDS011;32223;53.654;10.014;2023-04-06T13:03:38;7.25;;;3.80;;
46507;SDS011;32223;53.654;10.014;2023-04-06T13:06:04;7.40;;;4.82;;
46507;SDS011;32223;53.654;10.014;2023-04-06T13:08:30;6.72;;;4.78;;
46507;SDS011;32223;53.654;10.014;2023-04-06T13:10:56;6.22;;;4.55;;
46507;SDS011;32223;53.654;10.014;2023-04-06T13:13:23;6.35;;;4.00;;
46507;SDS011;32223;53.654;10.014;2023-04-06T13:15:53;7.68;;;4.60;;
46507;SDS011;32223;53.654;10.014;2023-04-06T13:18:20;5.88;;;3.67;;
46507;SDS011;32223;53.654;10.014;2023-04-06T13:20:47;6.90;;;4.38;;
46507;SDS011;32223;53.654;10.014;2023-04-06T13:23:13;5.22;;;3.72;;
46507;SDS011;32223;53.654;10.014;2023-04-06T13:25:39;5.45;;;3.85;;
46507;SDS011;32223;53.654;10.014;2023-04-06T13:28:05;6.30;;;4.35;;
46507;SDS011;32223;53.654;10.014;2023-04-06T13:30:31;7.25;;;3.90;;
46507;SDS011;32223;53.654;10.014;2023-04-06T13:32:56;5.55;;;4.07;;
46507;SDS011;32223;53.654;10.014;2023-04-06T13:35:22;6.80;;;4.40;;
46507;SDS011;32223;53.654;10.014;2023-04-06T13:37:48;7.82;;;4.70;;
46507;SDS011;32223;53.654;10.014;2023-04-06T13:40:18;8.00;;;3.92;;
46507;SDS011;32223;53.654;10.014;2023-04-06T13:42:44;6.50;;;4.53;;
46507;SDS011;32223;53.654;10.014;2023-04-06T13:45:11;6.35;;;4.07;;
46507;SDS011;32223;53.654;10.014;2023-04-06T13:47:37;10.27;;;6.82;;
46507;SDS011;32223;53.654;10.014;2023-04-06T13:50:03;6.70;;;4.38;;
46507;SDS011;32223;53.654;10.014;2023-04-06T13:52:29;7.10;;;4.80;;
46507;SDS011;32223;53.654;10.014;2023-04-06T13:54:55;8.32;;;4.30;;
46507;SDS011;32223;53.654;10.014;2023-04-06T13:57:20;6.28;;;4.72;;
46507;SDS011;32223;53.654;10.014;2023-04-06T13:59:46;6.25;;;4.60;;
46507;SDS011;32223;53.654;10.014;2023-04-06T14:02:12;7.63;;;5.43;;
46507;SDS011;32223;53.654;10.014;2023-04-06T14:04:37;5.90;;;4.13;;
46507;SDS011;32223;53.654;10.014;2023-04-06T14:07:03;5.90;;;3.88;;
46507;SDS011;32223;53.654;10.014;2023-04-06T14:09:32;5.28;;;4.22;;
46507;SDS011;32223;53.654;10.014;2023-04-06T14:11:57;6.00;;;4.10;;
46507;SDS011;32223;53.654;10.014;2023-04-06T14:14:23;5.68;;;4.40;;
46507;SDS011;32223;53.654;10.014;2023-04-06T14:16:49;6.63;;;4.55;;
46507;SDS011;32223;53.654;10.014;2023-04-06T14:19:15;6.90;;;3.75;;
46507;SDS011;32223;53.654;10.014;2023-04-06T14:21:42;4.75;;;3.70;;
46507;SDS011;32223;53.654;10.014;2023-04-06T14:24:09;6.75;;;4.32;;
46507;SDS011;32223;53.654;10.014;2023-04-06T14:26:35;7.40;;;4.90;;
46507;SDS011;32223;53.654;10.014;2023-04-06T14:29:02;7.18;;;5.13;;
46507;SDS011;32223;53.654;10.014;2023-04-06T14:31:28;5.85;;;4.45;;
46507;SDS011;32223;53.654;10.014;2023-04-06T14:33:55;8.80;;;4.43;;
46507;SDS011;32223;53.654;10.014;2023-04-06T14:36:20;6.45;;;4.88;;
46507;SDS011;32223;53.654;10.014;2023-04-06T14:38:46;16.30;;;4.93;;
46507;SDS011;32223;53.654;10.014;2023-04-06T14:41:19;7.70;;;4.82;;